sensor_id;sensor_type;location;lat;lon;timestamp;pressure;altitude;pressure_sealevel;temperature
79089;BMP280;68489;50.286;9.452;2023-05-10T00:01:39;96626.34;;;14.14
79089;BMP280;68489;50.286;9.452;2023-05-10T00:04:05;96632.16;;;14.12
79089;BMP280;68489;50.286;9.452;2023-05-10T00:06:30;96631.16;;;14.10
79089;BMP280;68489;50.286;9.452;2023-05-10T00:08:56;96628.22;;;14.08
79089;BMP280;68489;50.286;9.452;2023-05-10T00:11:21;96627.25;;;14.05
79089;BMP280;68489;50.286;9.452;2023-05-10T00:13:47;96622.63;;;14.00
79089;BMP280;68489;50.286;9.452;2023-05-10T00:16:12;96622.81;;;13.97
79089;BMP280;68489;50.286;9.452;2023-05-10T00:18:38;96626.47;;;13.99
79089;BMP280;68489;50.286;9.452;2023-05-10T00:21:04;96626.69;;;13.96
79089;BMP280;68489;50.286;9.452;2023-05-10T00:23:29;96618.94;;;13.98
79089;BMP280;68489;50.286;9.452;2023-05-10T00:25:54;96624.47;;;13.94
79089;BMP280;68489;50.286;9.452;2023-05-10T00:28:20;96619.63;;;13.92
79089;BMP280;68489;50.286;9.452;2023-05-10T00:30:45;96623.97;;;13.90
79089;BMP280;68489;50.286;9.452;2023-05-10T00:33:10;96617.41;;;13.91
79089;BMP280;68489;50.286;9.452;2023-05-10T00:35:36;96621.53;;;13.86
79089;BMP280;68489;50.286;9.452;2023-05-10T00:38:03;96615.91;;;13.84
79089;BMP280;68489;50.286;9.452;2023-05-10T00:40:28;96614.19;;;13.81
79089;BMP280;68489;50.286;9.452;2023-05-10T00:42:53;96609.56;;;13.82
79089;BMP280;68489;50.286;9.452;2023-05-10T00:45:19;96611.72;;;13.78
79089;BMP280;68489;50.286;9.452;2023-05-10T00:47:44;96614.38;;;13.78
79089;BMP280;68489;50.286;9.452;2023-05-10T00:50:10;96616.81;;;13.76
79089;BMP280;68489;50.286;9.452;2023-05-10T00:52:36;96613.94;;;13.79
79089;BMP280;68489;50.286;9.452;2023-05-10T00:55:02;96611.22;;;13.74
79089;BMP280;68489;50.286;9.452;2023-05-10T00:57:28;96618.22;;;13.71
79089;BMP280;68489;50.286;9.452;2023-05-10T00:59:53;96617.03;;;13.72
79089;BMP280;68489;50.286;9.452;2023-05-10T01:02:19;96616.03;;;13.70
79089;BMP280;68489;50.286;9.452;2023-05-10T01:04:44;96611.91;;;13.68
79089;BMP280;68489;50.286;9.452;2023-05-10T01:07:09;96622.31;;;13.66
79089;BMP280;68489;50.286;9.452;2023-05-10T01:09:35;96624.22;;;13.60
79089;BMP280;68489;50.286;9.452;2023-05-10T01:12:01;96625.84;;;13.52
79089;BMP280;68489;50.286;9.452;2023-05-10T01:14:27;96622.63;;;13.43
79089;BMP280;68489;50.286;9.452;2023-05-10T01:16:53;96624.56;;;13.42
79089;BMP280;68489;50.286;9.452;2023-05-10T01:19:22;96613.25;;;13.32
79089;BMP280;68489;50.286;9.452;2023-05-10T01:21:49;96619.28;;;13.27
79089;BMP280;68489;50.286;9.452;2023-05-10T01:27:25;96621.03;;;13.10
79089;BMP280;68489;50.286;9.452;2023-05-10T01:32:57;96622.19;;;13.03
79089;BMP280;68489;50.286;9.452;2023-05-10T01:35:55;96620.63;;;12.97
79089;BMP280;68489;50.286;9.452;2023-05-10T01:38:29;96620.56;;;12.91
79089;BMP280;68489;50.286;9.452;2023-05-10T01:41:14;96624.44;;;12.90
79089;BMP280;68489;50.286;9.452;2023-05-10T01:44:00;96635.78;;;12.85
79089;BMP280;68489;50.286;9.452;2023-05-10T01:46:32;96631.13;;;12.80
79089;BMP280;68489;50.286;9.452;2023-05-10T01:49:00;96631.13;;;12.80
79089;BMP280;68489;50.286;9.452;2023-05-10T01:51:30;96631.84;;;12.80
79089;BMP280;68489;50.286;9.452;2023-05-10T01:54:02;96637.66;;;12.79
79089;BMP280;68489;50.286;9.452;2023-05-10T01:56:30;96636.47;;;12.80
79089;BMP280;68489;50.286;9.452;2023-05-10T01:58:57;96646.09;;;12.77
79089;BMP280;68489;50.286;9.452;2023-05-10T02:01:24;96644.22;;;12.83
79089;BMP280;68489;50.286;9.452;2023-05-10T02:03:51;96644.00;;;12.81
79089;BMP280;68489;50.286;9.452;2023-05-10T02:06:18;96643.72;;;12.79
79089;BMP280;68489;50.286;9.452;2023-05-10T02:08:46;96645.38;;;12.77
79089;BMP280;68489;50.286;9.452;2023-05-10T02:11:13;96650.53;;;12.80
79089;BMP280;68489;50.286;9.452;2023-05-10T02:13:38;96648.03;;;12.77
79089;BMP280;68489;50.286;9.452;2023-05-10T02:16:05;96656.34;;;12.79
79089;BMP280;68489;50.286;9.452;2023-05-10T02:18:32;96656.34;;;12.79
79089;BMP280;68489;50.286;9.452;2023-05-10T02:20:59;96662.84;;;12.78
79089;BMP280;68489;50.286;9.452;2023-05-10T02:23:25;96664.34;;;12.79
79089;BMP280;68489;50.286;9.452;2023-05-10T02:25:51;96673.50;;;12.78
79089;BMP280;68489;50.286;9.452;2023-05-10T02:28:17;96661.00;;;12.84
79089;BMP280;68489;50.286;9.452;2023-05-10T02:30:43;96670.91;;;12.83
79089;BMP280;68489;50.286;9.452;2023-05-10T02:33:09;96672.88;;;12.83
79089;BMP280;68489;50.286;9.452;2023-05-10T02:35:36;96683.63;;;12.88
79089;BMP280;68489;50.286;9.452;2023-05-10T02:38:04;96685.75;;;12.84
79089;BMP280;68489;50.286;9.452;2023-05-10T02:40:30;96688.78;;;12.77
79089;BMP280;68489;50.286;9.452;2023-05-10T02:42:56;96684.78;;;12.67
79089;BMP280;68489;50.286;9.452;2023-05-10T02:45:24;96686.81;;;12.57
79089;BMP280;68489;50.286;9.452;2023-05-10T02:47:51;96684.75;;;12.47
79089;BMP280;68489;50.286;9.452;2023-05-10T02:50:16;96697.03;;;12.44
79089;BMP280;68489;50.286;9.452;2023-05-10T02:52:54;96695.94;;;12.36
79089;BMP280;68489;50.286;9.452;2023-05-10T02:55:22;96687.69;;;12.34
79089;BMP280;68489;50.286;9.452;2023-05-10T02:57:57;96688.34;;;12.29
79089;BMP280;68489;50.286;9.452;2023-05-10T03:00:24;96690.94;;;12.23
79089;BMP280;68489;50.286;9.452;2023-05-10T03:02:49;96684.50;;;12.15
79089;BMP280;68489;50.286;9.452;2023-05-10T03:05:15;96687.16;;;12.15
79089;BMP280;68489;50.286;9.452;2023-05-10T03:07:40;96688.34;;;12.14
79089;BMP280;68489;50.286;9.452;2023-05-10T03:10:06;96687.34;;;12.11
79089;BMP280;68489;50.286;9.452;2023-05-10T03:15:47;96687.50;;;12.23
79089;BMP280;68489;50.286;9.452;2023-05-10T03:18:16;96692.03;;;12.17
79089;BMP280;68489;50.286;9.452;2023-05-10T03:20:46;96698.09;;;12.17
79089;BMP280;68489;50.286;9.452;2023-05-10T03:23:21;96701.94;;;12.16
79089;BMP280;68489;50.286;9.452;2023-05-10T03:25:48;96697.91;;;12.21
79089;BMP280;68489;50.286;9.452;2023-05-10T03:28:14;96691.38;;;12.22
79089;BMP280;68489;50.286;9.452;2023-05-10T03:30:41;96704.16;;;12.18
79089;BMP280;68489;50.286;9.452;2023-05-10T03:33:08;96696.44;;;12.20
79089;BMP280;68489;50.286;9.452;2023-05-10T03:35:33;96706.63;;;12.21
79089;BMP280;68489;50.286;9.452;2023-05-10T03:37:58;96700.31;;;12.19
79089;BMP280;68489;50.286;9.452;2023-05-10T03:40:24;96708.19;;;12.13
79089;BMP280;68489;50.286;9.452;2023-05-10T03:45:25;96698.56;;;12.16
79089;BMP280;68489;50.286;9.452;2023-05-10T03:47:51;96698.56;;;12.16
79089;BMP280;68489;50.286;9.452;2023-05-10T03:50:16;96696.31;;;12.14
79089;BMP280;68489;50.286;9.452;2023-05-10T03:52:41;96699.56;;;12.18
79089;BMP280;68489;50.286;9.452;2023-05-10T03:55:07;96702.75;;;12.22
79089;BMP280;68489;50.286;9.452;2023-05-10T03:57:32;96703.88;;;12.16
79089;BMP280;68489;50.286;9.452;2023-05-10T03:59:58;96707.09;;;12.20
79089;BMP280;68489;50.286;9.452;2023-05-10T04:02:23;96713.81;;;12.15
79089;BMP280;68489;50.286;9.452;2023-05-10T04:04:48;96715.28;;;12.16
79089;BMP280;68489;50.286;9.452;2023-05-10T04:07:14;96717.94;;;12.16
79089;BMP280;68489;50.286;9.452;2023-05-10T04:09:40;96721.63;;;12.19
79089;BMP280;68489;50.286;9.452;2023-05-10T04:12:05;96724.28;;;12.19
79089;BMP280;68489;50.286;9.452;2023-05-10T04:14:31;96720.16;;;12.18
79089;BMP280;68489;50.286;9.452;2023-05-10T04:16:56;96729.13;;;12.20
79089;BMP280;68489;50.286;9.452;2023-05-10T04:19:21;96736.41;;;12.20
79089;BMP280;68489;50.286;9.452;2023-05-10T04:21:46;96730.63;;;12.21
79089;BMP280;68489;50.286;9.452;2023-05-10T04:24:12;96733.47;;;12.18
79089;BMP280;68489;50.286;9.452;2023-05-10T04:26:37;96742.22;;;12.18
79089;BMP280;68489;50.286;9.452;2023-05-10T04:29:02;96747.53;;;12.18
79089;BMP280;68489;50.286;9.452;2023-05-10T04:31:27;96744.88;;;12.18
79089;BMP280;68489;50.286;9.452;2023-05-10T04:33:53;96745.63;;;12.19
79089;BMP280;68489;50.286;9.452;2023-05-10T04:36:18;96736.41;;;12.20
79089;BMP280;68489;50.286;9.452;2023-05-10T04:38:43;96739.16;;;12.25
79089;BMP280;68489;50.286;9.452;2023-05-10T04:41:09;96742.38;;;12.29
79089;BMP280;68489;50.286;9.452;2023-05-10T04:43:36;96740.28;;;12.33
79089;BMP280;68489;50.286;9.452;2023-05-10T04:46:02;96751.41;;;12.32
79089;BMP280;68489;50.286;9.452;2023-05-10T04:48:27;96756.09;;;12.37
79089;BMP280;68489;50.286;9.452;2023-05-10T04:50:52;96750.75;;;12.37
79089;BMP280;68489;50.286;9.452;2023-05-10T04:53:18;96757.56;;;12.38
79089;BMP280;68489;50.286;9.452;2023-05-10T04:55:43;96755.63;;;12.38
79089;BMP280;68489;50.286;9.452;2023-05-10T04:58:08;96764.44;;;12.45
79089;BMP280;68489;50.286;9.452;2023-05-10T05:00:34;96761.31;;;12.46
79089;BMP280;68489;50.286;9.452;2023-05-10T05:02:59;96769.41;;;12.52
79089;BMP280;68489;50.286;9.452;2023-05-10T05:05:24;96763.25;;;12.60
79089;BMP280;68489;50.286;9.452;2023-05-10T05:07:50;96765.69;;;12.64
79089;BMP280;68489;50.286;9.452;2023-05-10T05:10:15;96780.34;;;12.69
79089;BMP280;68489;50.286;9.452;2023-05-10T05:12:40;96771.41;;;12.72
79089;BMP280;68489;50.286;9.452;2023-05-10T05:15:06;96773.88;;;12.75
79089;BMP280;68489;50.286;9.452;2023-05-10T05:17:33;96773.31;;;12.86
79089;BMP280;68489;50.286;9.452;2023-05-10T05:19:58;96777.47;;;12.87
79089;BMP280;68489;50.286;9.452;2023-05-10T05:22:23;96784.88;;;12.98
79089;BMP280;68489;50.286;9.452;2023-05-10T05:24:55;96789.56;;;13.03
79089;BMP280;68489;50.286;9.452;2023-05-10T05:27:21;96789.38;;;13.06
79089;BMP280;68489;50.286;9.452;2023-05-10T05:29:50;96788.19;;;13.07
79089;BMP280;68489;50.286;9.452;2023-05-10T05:32:15;96795.97;;;13.11
79089;BMP280;68489;50.286;9.452;2023-05-10T05:34:40;96799.13;;;13.09
79089;BMP280;68489;50.286;9.452;2023-05-10T05:37:05;96804.94;;;13.08
79089;BMP280;68489;50.286;9.452;2023-05-10T05:39:31;96811.00;;;13.08
79089;BMP280;68489;50.286;9.452;2023-05-10T05:41:56;96805.66;;;13.08
79089;BMP280;68489;50.286;9.452;2023-05-10T05:44:21;96810.63;;;13.15
79089;BMP280;68489;50.286;9.452;2023-05-10T05:46:46;96807.00;;;13.19
79089;BMP280;68489;50.286;9.452;2023-05-10T05:49:12;96811.84;;;13.35
79089;BMP280;68489;50.286;9.452;2023-05-10T05:51:37;96816.47;;;13.34
79089;BMP280;68489;50.286;9.452;2023-05-10T05:54:02;96810.91;;;13.38
79089;BMP280;68489;50.286;9.452;2023-05-10T05:56:29;96819.66;;;13.38
79089;BMP280;68489;50.286;9.452;2023-05-10T05:58:54;96818.25;;;13.43
79089;BMP280;68489;50.286;9.452;2023-05-10T06:01:19;96824.59;;;13.46
79089;BMP280;68489;50.286;9.452;2023-05-10T06:03:45;96818.03;;;13.61
79089;BMP280;68489;50.286;9.452;2023-05-10T06:06:10;96817.13;;;13.70
79089;BMP280;68489;50.286;9.452;2023-05-10T06:08:36;96821.91;;;13.81
79089;BMP280;68489;50.286;9.452;2023-05-10T06:11:01;96828.09;;;13.92
79089;BMP280;68489;50.286;9.452;2023-05-10T06:13:26;96827.72;;;14.05
79089;BMP280;68489;50.286;9.452;2023-05-10T06:16:00;96824.47;;;13.96
79089;BMP280;68489;50.286;9.452;2023-05-10T06:18:25;96831.66;;;14.10
79089;BMP280;68489;50.286;9.452;2023-05-10T06:20:51;96829.03;;;14.15
79089;BMP280;68489;50.286;9.452;2023-05-10T06:23:16;96836.91;;;14.25
79089;BMP280;68489;50.286;9.452;2023-05-10T06:25:42;96833.34;;;14.33
79089;BMP280;68489;50.286;9.452;2023-05-10T06:28:07;96843.28;;;14.33
79089;BMP280;68489;50.286;9.452;2023-05-10T06:30:32;96839.19;;;14.37
79089;BMP280;68489;50.286;9.452;2023-05-10T06:32:57;96845.78;;;14.36
79089;BMP280;68489;50.286;9.452;2023-05-10T06:35:23;96839.97;;;14.43
79089;BMP280;68489;50.286;9.452;2023-05-10T06:37:49;96849.50;;;14.44
79089;BMP280;68489;50.286;9.452;2023-05-10T06:40:14;96850.22;;;14.45
79089;BMP280;68489;50.286;9.452;2023-05-10T06:42:39;96844.78;;;14.34
79089;BMP280;68489;50.286;9.452;2023-05-10T06:45:05;96843.72;;;14.26
79089;BMP280;68489;50.286;9.452;2023-05-10T06:47:30;96848.91;;;14.09
79089;BMP280;68489;50.286;9.452;2023-05-10T06:49:56;96855.25;;;13.91
79089;BMP280;68489;50.286;9.452;2023-05-10T06:52:21;96847.91;;;13.86
79089;BMP280;68489;50.286;9.452;2023-05-10T06:54:47;96843.19;;;13.75
79089;BMP280;68489;50.286;9.452;2023-05-10T06:57:12;96848.00;;;13.71
79089;BMP280;68489;50.286;9.452;2023-05-10T06:59:37;96855.66;;;13.63
79089;BMP280;68489;50.286;9.452;2023-05-10T07:02:02;96853.31;;;13.51
79089;BMP280;68489;50.286;9.452;2023-05-10T07:04:28;96860.06;;;13.46
79089;BMP280;68489;50.286;9.452;2023-05-10T07:06:53;96854.34;;;13.38
79089;BMP280;68489;50.286;9.452;2023-05-10T07:09:18;96851.91;;;13.35
79089;BMP280;68489;50.286;9.452;2023-05-10T07:11:44;96851.53;;;13.27
79089;BMP280;68489;50.286;9.452;2023-05-10T07:14:09;96860.28;;;13.28
79089;BMP280;68489;50.286;9.452;2023-05-10T07:16:35;96855.50;;;13.32
79089;BMP280;68489;50.286;9.452;2023-05-10T07:19:00;96867.56;;;13.42
79089;BMP280;68489;50.286;9.452;2023-05-10T07:21:25;96866.41;;;13.49
79089;BMP280;68489;50.286;9.452;2023-05-10T07:23:53;96868.63;;;13.50
79089;BMP280;68489;50.286;9.452;2023-05-10T07:26:18;96865.09;;;13.59
79089;BMP280;68489;50.286;9.452;2023-05-10T07:28:44;96866.09;;;13.61
79089;BMP280;68489;50.286;9.452;2023-05-10T07:31:09;96864.63;;;13.60
79089;BMP280;68489;50.286;9.452;2023-05-10T07:33:34;96865.88;;;13.65
79089;BMP280;68489;50.286;9.452;2023-05-10T07:36:00;96864.97;;;13.68
79089;BMP280;68489;50.286;9.452;2023-05-10T07:38:25;96865.69;;;13.68
79089;BMP280;68489;50.286;9.452;2023-05-10T07:40:51;96866.84;;;13.62
79089;BMP280;68489;50.286;9.452;2023-05-10T07:43:17;96868.16;;;13.72
79089;BMP280;68489;50.286;9.452;2023-05-10T07:45:42;96869.22;;;13.80
79089;BMP280;68489;50.286;9.452;2023-05-10T07:48:07;96870.44;;;13.79
79089;BMP280;68489;50.286;9.452;2023-05-10T07:50:32;96869.50;;;13.82
79089;BMP280;68489;50.286;9.452;2023-05-10T07:52:57;96878.00;;;13.81
79089;BMP280;68489;50.286;9.452;2023-05-10T07:55:23;96883.06;;;13.79
79089;BMP280;68489;50.286;9.452;2023-05-10T07:57:48;96881.06;;;13.74
79089;BMP280;68489;50.286;9.452;2023-05-10T08:00:17;96879.13;;;13.74
79089;BMP280;68489;50.286;9.452;2023-05-10T08:02:42;96885.19;;;13.75
79089;BMP280;68489;50.286;9.452;2023-05-10T08:05:07;96891.38;;;13.81
79089;BMP280;68489;50.286;9.452;2023-05-10T08:07:33;96889.22;;;13.85
79089;BMP280;68489;50.286;9.452;2023-05-10T08:09:58;96890.13;;;13.82
79089;BMP280;68489;50.286;9.452;2023-05-10T08:12:23;96894.03;;;13.81
79089;BMP280;68489;50.286;9.452;2023-05-10T08:14:49;96890.34;;;13.78
79089;BMP280;68489;50.286;9.452;2023-05-10T08:17:14;96893.53;;;13.82
79089;BMP280;68489;50.286;9.452;2023-05-10T08:19:39;96890.34;;;13.78
79089;BMP280;68489;50.286;9.452;2023-05-10T08:22:05;96894.75;;;13.81
79089;BMP280;68489;50.286;9.452;2023-05-10T08:24:30;96897.50;;;13.87
79089;BMP280;68489;50.286;9.452;2023-05-10T08:26:55;96904.38;;;13.93
79089;BMP280;68489;50.286;9.452;2023-05-10T08:29:20;96904.97;;;14.03
79089;BMP280;68489;50.286;9.452;2023-05-10T08:31:46;96905.25;;;14.05
79089;BMP280;68489;50.286;9.452;2023-05-10T08:34:11;96910.19;;;14.12
79089;BMP280;68489;50.286;9.452;2023-05-10T08:36:36;96911.41;;;14.11
79089;BMP280;68489;50.286;9.452;2023-05-10T08:39:02;96913.13;;;14.14
79089;BMP280;68489;50.286;9.452;2023-05-10T08:41:27;96920.94;;;14.18
79089;BMP280;68489;50.286;9.452;2023-05-10T08:43:54;96926.06;;;14.22
79089;BMP280;68489;50.286;9.452;2023-05-10T08:46:21;96925.34;;;14.21
79089;BMP280;68489;50.286;9.452;2023-05-10T08:48:48;96921.53;;;14.28
79089;BMP280;68489;50.286;9.452;2023-05-10T08:51:15;96929.09;;;14.29
79089;BMP280;68489;50.286;9.452;2023-05-10T08:53:41;96929.25;;;14.46
79089;BMP280;68489;50.286;9.452;2023-05-10T08:56:06;96932.00;;;14.78
79089;BMP280;68489;50.286;9.452;2023-05-10T08:58:32;96935.81;;;14.97
79089;BMP280;68489;50.286;9.452;2023-05-10T09:00:58;96933.38;;;14.99
79089;BMP280;68489;50.286;9.452;2023-05-10T09:03:24;96939.59;;;14.85
79089;BMP280;68489;50.286;9.452;2023-05-10T09:05:49;96941.59;;;14.64
79089;BMP280;68489;50.286;9.452;2023-05-10T09:08:15;96942.75;;;14.57
79089;BMP280;68489;50.286;9.452;2023-05-10T09:10:42;96947.63;;;14.59
79089;BMP280;68489;50.286;9.452;2023-05-10T09:13:10;96941.59;;;14.64
79089;BMP280;68489;50.286;9.452;2023-05-10T09:15:35;96944.75;;;14.62
79089;BMP280;68489;50.286;9.452;2023-05-10T09:18:00;96949.59;;;14.58
79089;BMP280;68489;50.286;9.452;2023-05-10T09:20:27;96951.84;;;14.65
79089;BMP280;68489;50.286;9.452;2023-05-10T09:22:52;96953.72;;;14.59
79089;BMP280;68489;50.286;9.452;2023-05-10T09:25:19;96955.88;;;14.55
79089;BMP280;68489;50.286;9.452;2023-05-10T09:27:45;96967.31;;;14.56
79089;BMP280;68489;50.286;9.452;2023-05-10T09:30:16;96958.78;;;14.57
79089;BMP280;68489;50.286;9.452;2023-05-10T09:32:43;96957.00;;;14.69
79089;BMP280;68489;50.286;9.452;2023-05-10T09:35:14;96960.25;;;15.10
79089;BMP280;68489;50.286;9.452;2023-05-10T09:37:40;96958.84;;;15.46
79089;BMP280;68489;50.286;9.452;2023-05-10T09:40:13;96957.88;;;15.98
79089;BMP280;68489;50.286;9.452;2023-05-10T09:42:38;96959.25;;;16.58
79089;BMP280;68489;50.286;9.452;2023-05-10T09:45:04;96964.91;;;16.66
79089;BMP280;68489;50.286;9.452;2023-05-10T09:47:36;96972.00;;;16.97
79089;BMP280;68489;50.286;9.452;2023-05-10T09:50:02;96969.75;;;17.46
79089;BMP280;68489;50.286;9.452;2023-05-10T09:55:10;96962.28;;;17.86
79089;BMP280;68489;50.286;9.452;2023-05-10T09:57:36;96964.69;;;18.01
79089;BMP280;68489;50.286;9.452;2023-05-10T10:00:01;96970.06;;;18.01
79089;BMP280;68489;50.286;9.452;2023-05-10T10:02:28;96962.44;;;18.10
79089;BMP280;68489;50.286;9.452;2023-05-10T10:04:54;96966.44;;;18.39
79089;BMP280;68489;50.286;9.452;2023-05-10T10:07:23;96969.28;;;18.53
79089;BMP280;68489;50.286;9.452;2023-05-10T10:09:49;96965.81;;;18.58
79089;BMP280;68489;50.286;9.452;2023-05-10T10:12:14;96964.94;;;18.44
79089;BMP280;68489;50.286;9.452;2023-05-10T10:14:40;96967.91;;;18.40
79089;BMP280;68489;50.286;9.452;2023-05-10T10:17:05;96971.38;;;18.30
79089;BMP280;68489;50.286;9.452;2023-05-10T10:19:33;96973.25;;;18.46
79089;BMP280;68489;50.286;9.452;2023-05-10T10:21:58;96967.13;;;18.51
79089;BMP280;68489;50.286;9.452;2023-05-10T10:24:24;96970.41;;;18.68
79089;BMP280;68489;50.286;9.452;2023-05-10T10:26:50;96969.28;;;18.58
79089;BMP280;68489;50.286;9.452;2023-05-10T10:29:23;96969.28;;;18.53
79089;BMP280;68489;50.286;9.452;2023-05-10T10:31:57;96971.16;;;18.63
79089;BMP280;68489;50.286;9.452;2023-05-10T10:34:29;96973.47;;;18.84
79089;BMP280;68489;50.286;9.452;2023-05-10T10:36:56;96972.84;;;19.26
79089;BMP280;68489;50.286;9.452;2023-05-10T10:39:22;96968.75;;;19.44
79089;BMP280;68489;50.286;9.452;2023-05-10T10:41:52;96965.19;;;19.98
79089;BMP280;68489;50.286;9.452;2023-05-10T10:52:30;96970.56;;;20.36
79089;BMP280;68489;50.286;9.452;2023-05-10T10:57:52;96971.09;;;19.97
79089;BMP280;68489;50.286;9.452;2023-05-10T11:00:27;96980.84;;;19.81
79089;BMP280;68489;50.286;9.452;2023-05-10T11:03:03;96979.59;;;19.39
79089;BMP280;68489;50.286;9.452;2023-05-10T11:05:41;96976.25;;;19.02
79089;BMP280;68489;50.286;9.452;2023-05-10T11:08:10;96983.97;;;18.52
79089;BMP280;68489;50.286;9.452;2023-05-10T11:10:35;96990.72;;;18.28
79089;BMP280;68489;50.286;9.452;2023-05-10T11:13:08;96983.53;;;17.95
79089;BMP280;68489;50.286;9.452;2023-05-10T11:15:39;96987.81;;;17.62
79089;BMP280;68489;50.286;9.452;2023-05-10T11:18:21;96987.81;;;17.51
79089;BMP280;68489;50.286;9.452;2023-05-10T11:23:21;96994.66;;;17.47
79089;BMP280;68489;50.286;9.452;2023-05-10T11:25:48;96989.28;;;17.58
79089;BMP280;68489;50.286;9.452;2023-05-10T11:28:13;96988.53;;;17.57
79089;BMP280;68489;50.286;9.452;2023-05-10T11:30:40;96998.09;;;17.36
79089;BMP280;68489;50.286;9.452;2023-05-10T11:33:06;96997.63;;;17.15
79089;BMP280;68489;50.286;9.452;2023-05-10T11:35:40;97003.94;;;16.78
79089;BMP280;68489;50.286;9.452;2023-05-10T11:38:09;97005.38;;;16.51
79089;BMP280;68489;50.286;9.452;2023-05-10T11:40:35;97002.34;;;16.27
79089;BMP280;68489;50.286;9.452;2023-05-10T11:43:00;97008.38;;;16.05
79089;BMP280;68489;50.286;9.452;2023-05-10T11:45:25;97013.84;;;15.85
79089;BMP280;68489;50.286;9.452;2023-05-10T11:47:52;97015.94;;;15.64
79089;BMP280;68489;50.286;9.452;2023-05-10T11:50:18;97009.44;;;15.39
79089;BMP280;68489;50.286;9.452;2023-05-10T11:52:43;97014.91;;;15.24
79089;BMP280;68489;50.286;9.452;2023-05-10T11:55:08;97011.16;;;15.16
79089;BMP280;68489;50.286;9.452;2023-05-10T11:57:35;97016.19;;;15.03
79089;BMP280;68489;50.286;9.452;2023-05-10T12:00:03;97018.81;;;14.97
79089;BMP280;68489;50.286;9.452;2023-05-10T12:02:29;97016.56;;;14.90
79089;BMP280;68489;50.286;9.452;2023-05-10T12:04:55;97016.75;;;14.86
79089;BMP280;68489;50.286;9.452;2023-05-10T12:07:20;97023.75;;;14.78
79089;BMP280;68489;50.286;9.452;2023-05-10T12:12:41;97025.69;;;14.78
79089;BMP280;68489;50.286;9.452;2023-05-10T12:15:20;97034.91;;;14.77
79089;BMP280;68489;50.286;9.452;2023-05-10T12:17:47;97038.31;;;14.77
79089;BMP280;68489;50.286;9.452;2023-05-10T12:20:22;97034.72;;;14.80
79089;BMP280;68489;50.286;9.452;2023-05-10T12:22:55;97037.50;;;14.91
79089;BMP280;68489;50.286;9.452;2023-05-10T12:25:23;97037.84;;;15.05
79089;BMP280;68489;50.286;9.452;2023-05-10T12:27:52;97045.53;;;15.17
79089;BMP280;68489;50.286;9.452;2023-05-10T12:30:26;97051.50;;;15.33
79089;BMP280;68489;50.286;9.452;2023-05-10T12:32:52;97050.22;;;15.60
79089;BMP280;68489;50.286;9.452;2023-05-10T12:35:17;97055.50;;;16.23
79089;BMP280;68489;50.286;9.452;2023-05-10T12:37:46;97056.44;;;16.85
79089;BMP280;68489;50.286;9.452;2023-05-10T12:40:12;97056.00;;;17.20
79089;BMP280;68489;50.286;9.452;2023-05-10T12:42:38;97058.22;;;17.44
79089;BMP280;68489;50.286;9.452;2023-05-10T12:45:04;97057.69;;;17.68
79089;BMP280;68489;50.286;9.452;2023-05-10T12:47:30;97058.84;;;18.06
79089;BMP280;68489;50.286;9.452;2023-05-10T12:49:55;97052.09;;;18.41
79089;BMP280;68489;50.286;9.452;2023-05-10T12:52:21;97049.63;;;18.43
79089;BMP280;68489;50.286;9.452;2023-05-10T12:54:46;97048.34;;;18.55
79089;BMP280;68489;50.286;9.452;2023-05-10T12:57:12;97048.84;;;18.54
79089;BMP280;68489;50.286;9.452;2023-05-10T12:59:38;97040.88;;;18.31
79089;BMP280;68489;50.286;9.452;2023-05-10T13:02:03;97057.81;;;18.15
79089;BMP280;68489;50.286;9.452;2023-05-10T13:04:28;97059.28;;;18.10
79089;BMP280;68489;50.286;9.452;2023-05-10T13:06:54;97061.03;;;18.02
79089;BMP280;68489;50.286;9.452;2023-05-10T13:09:23;97074.25;;;17.95
79089;BMP280;68489;50.286;9.452;2023-05-10T13:11:48;97061.81;;;17.75
79089;BMP280;68489;50.286;9.452;2023-05-10T13:14:14;97072.84;;;17.65
79089;BMP280;68489;50.286;9.452;2023-05-10T13:16:39;97071.88;;;17.29
79089;BMP280;68489;50.286;9.452;2023-05-10T13:19:04;97076.56;;;16.47
79089;BMP280;68489;50.286;9.452;2023-05-10T13:21:30;97074.25;;;16.17
79089;BMP280;68489;50.286;9.452;2023-05-10T13:23:55;97084.25;;;15.74
79089;BMP280;68489;50.286;9.452;2023-05-10T13:26:20;97074.50;;;15.45
79089;BMP280;68489;50.286;9.452;2023-05-10T13:28:46;97080.72;;;15.31
79089;BMP280;68489;50.286;9.452;2023-05-10T13:31:11;97076.16;;;15.11
79089;BMP280;68489;50.286;9.452;2023-05-10T13:33:36;97078.97;;;15.02
79089;BMP280;68489;50.286;9.452;2023-05-10T13:36:02;97072.03;;;14.89
79089;BMP280;68489;50.286;9.452;2023-05-10T13:38:27;97079.38;;;14.74
79089;BMP280;68489;50.286;9.452;2023-05-10T13:40:52;97081.69;;;14.61
79089;BMP280;68489;50.286;9.452;2023-05-10T13:43:18;97078.84;;;14.50
79089;BMP280;68489;50.286;9.452;2023-05-10T13:45:43;97075.38;;;14.43
79089;BMP280;68489;50.286;9.452;2023-05-10T13:48:09;97080.94;;;14.40
79089;BMP280;68489;50.286;9.452;2023-05-10T13:50:34;97074.31;;;14.35
79089;BMP280;68489;50.286;9.452;2023-05-10T13:52:59;97076.03;;;14.38
79089;BMP280;68489;50.286;9.452;2023-05-10T13:55:25;97078.53;;;14.42
79089;BMP280;68489;50.286;9.452;2023-05-10T13:57:50;97078.63;;;14.48
79089;BMP280;68489;50.286;9.452;2023-05-10T14:00:15;97073.16;;;14.62
79089;BMP280;68489;50.286;9.452;2023-05-10T14:02:41;97075.53;;;14.75
79089;BMP280;68489;50.286;9.452;2023-05-10T14:05:07;97078.38;;;14.92
79089;BMP280;68489;50.286;9.452;2023-05-10T14:07:32;97071.88;;;14.98
79089;BMP280;68489;50.286;9.452;2023-05-10T14:09:57;97077.63;;;15.12
79089;BMP280;68489;50.286;9.452;2023-05-10T14:12:22;97068.94;;;15.22
79089;BMP280;68489;50.286;9.452;2023-05-10T14:14:47;97071.63;;;15.22
79089;BMP280;68489;50.286;9.452;2023-05-10T14:17:13;97070.47;;;15.29
79089;BMP280;68489;50.286;9.452;2023-05-10T14:19:38;97062.97;;;15.33
79089;BMP280;68489;50.286;9.452;2023-05-10T14:22:03;97064.06;;;15.47
79089;BMP280;68489;50.286;9.452;2023-05-10T14:24:29;97067.03;;;15.55
79089;BMP280;68489;50.286;9.452;2023-05-10T14:26:54;97059.50;;;15.59
79089;BMP280;68489;50.286;9.452;2023-05-10T14:29:20;97059.63;;;15.75
79089;BMP280;68489;50.286;9.452;2023-05-10T14:31:45;97056.25;;;15.81
79089;BMP280;68489;50.286;9.452;2023-05-10T14:34:11;97052.72;;;16.06
79089;BMP280;68489;50.286;9.452;2023-05-10T14:36:36;97053.81;;;16.31